createdAt,value
2023-05-02T00:01:35.065Z,16.15
2023-05-02T00:03:49.577Z,16.18
2023-05-02T00:05:59.515Z,16.20
2023-05-02T00:08:12.316Z,16.24
2023-05-02T00:10:41.609Z,16.26
2023-05-02T00:12:54.308Z,16.27
2023-05-02T00:15:24.172Z,16.27
2023-05-02T00:17:33.497Z,16.31
2023-05-02T00:19:43.821Z,16.33
2023-05-02T00:21:53.463Z,16.34
2023-05-02T00:24:05.571Z,16.35
2023-05-02T00:26:35.419Z,16.32
2023-05-02T00:28:45.480Z,16.31
2023-05-02T00:31:14.940Z,16.30
2023-05-02T00:33:27.350Z,16.29
2023-05-02T00:35:38.428Z,16.28
2023-05-02T00:37:47.693Z,16.26
2023-05-02T00:39:57.492Z,16.25
2023-05-02T00:42:16.979Z,16.24
2023-05-02T00:44:26.389Z,16.21
2023-05-02T00:46:36.333Z,16.16
2023-05-02T00:49:06.131Z,16.16
2023-05-02T00:51:16.789Z,16.14
2023-05-02T00:53:46.579Z,16.14
2023-05-02T00:56:00.070Z,16.14
2023-05-02T00:58:21.982Z,16.13
2023-05-02T01:00:38.771Z,16.11
2023-05-02T01:02:55.430Z,16.11
2023-05-02T01:05:12.196Z,16.13
2023-05-02T01:07:49.302Z,16.17
2023-05-02T01:10:25.829Z,16.25
2023-05-02T01:12:46.908Z,16.37
2023-05-02T01:15:04.348Z,16.50
2023-05-02T01:17:36.365Z,16.66
2023-05-02T01:19:49.635Z,16.80
2023-05-02T01:22:02.230Z,16.94
2023-05-02T01:24:21.848Z,17.08
2023-05-02T01:26:41.626Z,17.24
2023-05-02T01:28:59.866Z,17.35
2023-05-02T01:31:11.647Z,17.38
2023-05-02T01:33:23.542Z,17.36
2023-05-02T01:35:34.744Z,17.30
2023-05-02T01:37:47.531Z,17.25
2023-05-02T01:40:09.347Z,17.19
2023-05-02T01:42:25.554Z,17.14
2023-05-02T01:44:44.921Z,17.08
2023-05-02T01:47:07.031Z,17.01
2023-05-02T01:49:18.237Z,16.91
2023-05-02T01:51:34.174Z,16.82
2023-05-02T01:53:48.178Z,16.76
2023-05-02T01:56:03.568Z,16.69
2023-05-02T01:58:15.904Z,16.60
2023-05-02T02:00:28.022Z,16.50
2023-05-02T02:02:40.501Z,16.46
2023-05-02T02:04:53.101Z,16.41
2023-05-02T02:07:10.121Z,16.36
2023-05-02T02:09:20.523Z,16.31
2023-05-02T02:11:36.978Z,16.26
2023-05-02T02:13:51.655Z,16.22
2023-05-02T02:16:17.692Z,16.16
2023-05-02T02:18:29.984Z,16.12
2023-05-02T02:20:40.799Z,16.07
2023-05-02T02:22:53.830Z,16.03
2023-05-02T02:25:05.140Z,16.00
2023-05-02T02:27:19.069Z,15.98
2023-05-02T02:29:29.876Z,15.94
2023-05-02T02:31:40.614Z,15.90
2023-05-02T02:33:50.959Z,15.85
2023-05-02T02:36:09.487Z,15.80
2023-05-02T02:38:29.181Z,15.75
2023-05-02T02:40:43.603Z,15.72
2023-05-02T02:43:01.259Z,15.66
2023-05-02T02:45:29.139Z,15.61
2023-05-02T02:47:44.099Z,15.56
2023-05-02T02:50:03.050Z,15.51
2023-05-02T02:52:41.177Z,15.46
2023-05-02T02:55:01.268Z,15.41
2023-05-02T02:57:19.969Z,15.37
2023-05-02T02:59:34.631Z,15.33
2023-05-02T03:01:56.002Z,15.29
2023-05-02T03:04:08.407Z,15.24
2023-05-02T03:06:19.599Z,15.22
2023-05-02T03:08:29.284Z,15.18
2023-05-02T03:10:49.712Z,15.15
2023-05-02T03:13:04.969Z,15.12
2023-05-02T03:15:33.023Z,15.07
2023-05-02T03:17:46.130Z,15.01
2023-05-02T03:20:05.864Z,15.00
2023-05-02T03:22:18.355Z,14.95
2023-05-02T03:24:47.647Z,14.88
2023-05-02T03:27:00.660Z,14.82
2023-05-02T03:29:15.967Z,14.78
2023-05-02T03:31:26.552Z,14.76
2023-05-02T03:33:41.882Z,14.73
2023-05-02T03:35:51.467Z,14.68
2023-05-02T03:38:20.733Z,14.62
2023-05-02T03:40:33.644Z,14.58
2023-05-02T03:42:44.103Z,14.55
2023-05-02T03:45:01.596Z,14.52
2023-05-02T03:47:15.094Z,14.48
2023-05-02T03:49:24.806Z,14.45
2023-05-02T03:51:37.760Z,14.42
2023-05-02T03:53:48.161Z,14.43
2023-05-02T03:55:58.087Z,14.42
2023-05-02T03:58:21.329Z,14.43
2023-05-02T04:00:30.734Z,14.42
2023-05-02T04:02:42.044Z,14.42
2023-05-02T04:04:54.616Z,14.42
2023-05-02T04:07:05.721Z,14.44
2023-05-02T04:09:15.282Z,14.44
2023-05-02T04:11:33.905Z,14.43
2023-05-02T04:13:44.114Z,14.42
2023-05-02T04:15:53.886Z,14.41
2023-05-02T04:18:05.587Z,14.41
2023-05-02T04:20:19.346Z,14.40
2023-05-02T04:22:42.462Z,14.39
2023-05-02T04:24:52.481Z,14.38
2023-05-02T04:27:02.140Z,14.36
2023-05-02T04:29:11.620Z,14.34
2023-05-02T04:31:21.383Z,14.32
2023-05-02T04:33:30.766Z,14.29
2023-05-02T04:35:45.140Z,14.25
2023-05-02T04:37:56.149Z,14.22
2023-05-02T04:40:12.000Z,14.20
2023-05-02T04:42:21.885Z,14.16
2023-05-02T04:44:38.786Z,14.11
2023-05-02T04:46:48.587Z,14.11
2023-05-02T04:49:01.441Z,14.10
2023-05-02T04:51:15.609Z,14.08
2023-05-02T04:53:29.763Z,14.07
2023-05-02T04:55:39.086Z,14.07
2023-05-02T04:57:48.580Z,14.05
2023-05-02T04:59:59.332Z,14.03
2023-05-02T05:02:09.615Z,14.03
2023-05-02T05:04:19.355Z,14.02
2023-05-02T05:06:29.828Z,14.01
2023-05-02T05:08:39.366Z,14.01
2023-05-02T05:10:49.594Z,14.00
2023-05-02T05:12:59.612Z,14.00
2023-05-02T05:15:10.437Z,13.99
2023-05-02T05:17:21.285Z,13.97
2023-05-02T05:19:30.963Z,13.94
2023-05-02T05:21:40.597Z,13.91
2023-05-02T05:23:50.841Z,13.89
2023-05-02T05:26:15.579Z,13.84
2023-05-02T05:28:27.791Z,13.80
2023-05-02T05:30:40.481Z,13.76
2023-05-02T05:32:53.504Z,13.70
2023-05-02T05:35:06.303Z,13.69
2023-05-02T05:37:19.378Z,13.66
2023-05-02T05:39:29.174Z,13.65
2023-05-02T05:41:40.291Z,13.64
2023-05-02T05:43:52.198Z,13.64
2023-05-02T05:46:11.321Z,13.63
2023-05-02T05:48:21.191Z,13.59
2023-05-02T05:50:31.241Z,13.59
2023-05-02T05:52:43.685Z,13.59
2023-05-02T05:54:55.248Z,13.57
2023-05-02T05:57:05.090Z,13.59
2023-05-02T05:59:18.598Z,13.58
2023-05-02T06:01:27.894Z,13.58
2023-05-02T06:03:37.697Z,13.57
2023-05-02T06:05:47.393Z,13.59
2023-05-02T06:07:57.402Z,13.61
2023-05-02T06:10:07.687Z,13.62
2023-05-02T06:12:17.842Z,13.63
2023-05-02T06:14:28.252Z,13.64
2023-05-02T06:16:42.824Z,13.64
2023-05-02T06:18:54.253Z,13.63
2023-05-02T06:21:09.403Z,13.64
2023-05-02T06:23:21.828Z,13.64
2023-05-02T06:25:34.386Z,13.62
2023-05-02T06:27:43.791Z,13.61
2023-05-02T06:30:04.537Z,13.61
2023-05-02T06:32:13.817Z,13.59
2023-05-02T06:34:26.128Z,13.59
2023-05-02T06:36:46.310Z,13.57
2023-05-02T06:38:56.385Z,13.53
2023-05-02T06:41:08.854Z,13.52
2023-05-02T06:43:18.549Z,13.49
2023-05-02T06:45:28.147Z,13.46
2023-05-02T06:47:37.937Z,13.43
2023-05-02T06:49:47.175Z,13.41
2023-05-02T06:51:56.528Z,13.37
2023-05-02T06:54:10.228Z,13.33
2023-05-02T06:56:19.619Z,13.29
2023-05-02T06:58:28.947Z,13.24
2023-05-02T07:00:41.366Z,13.21
2023-05-02T07:02:51.237Z,13.18
2023-05-02T07:05:00.636Z,13.14
2023-05-02T07:07:09.837Z,13.07
2023-05-02T07:09:39.352Z,13.04
2023-05-02T07:11:51.640Z,12.99
2023-05-02T07:14:01.390Z,12.94
2023-05-02T07:16:11.746Z,12.91
2023-05-02T07:18:21.792Z,12.87
2023-05-02T07:20:33.838Z,12.83
2023-05-02T07:22:46.607Z,12.80
2023-05-02T07:25:03.438Z,12.77
2023-05-02T07:27:16.278Z,12.72
2023-05-02T07:29:28.667Z,12.70
2023-05-02T07:31:38.766Z,12.66
2023-05-02T07:33:48.249Z,12.63
2023-05-02T07:35:57.590Z,12.60
2023-05-02T07:38:07.149Z,12.56
2023-05-02T07:40:25.845Z,12.54
2023-05-02T07:42:35.561Z,12.52
2023-05-02T07:44:47.766Z,12.49
2023-05-02T07:47:00.387Z,12.46
2023-05-02T07:49:09.925Z,12.43
2023-05-02T07:51:23.319Z,12.38
2023-05-02T07:53:33.510Z,12.33
2023-05-02T07:55:42.707Z,12.30
2023-05-02T07:57:52.197Z,12.27
2023-05-02T08:00:02.051Z,12.23
2023-05-02T08:02:24.434Z,12.17
2023-05-02T08:04:45.256Z,12.15
2023-05-02T08:06:54.655Z,12.12
2023-05-02T08:09:07.110Z,12.07
2023-05-02T08:11:21.969Z,12.03
2023-05-02T08:13:30.341Z,12.00
2023-05-02T08:15:39.988Z,11.96
2023-05-02T08:17:53.111Z,11.91
2023-05-02T08:20:02.995Z,11.88
2023-05-02T08:22:15.488Z,11.85
2023-05-02T08:24:24.786Z,11.82
2023-05-02T08:26:34.526Z,11.80
2023-05-02T08:28:43.759Z,11.80
2023-05-02T08:30:56.600Z,11.80
2023-05-02T08:33:06.177Z,11.80
2023-05-02T08:35:18.591Z,11.80
2023-05-02T08:37:27.744Z,11.79
2023-05-02T08:39:38.443Z,11.79
2023-05-02T08:41:56.916Z,11.78
2023-05-02T08:44:07.977Z,11.77
2023-05-02T08:46:19.719Z,11.77
2023-05-02T08:48:33.507Z,11.78
2023-05-02T08:50:44.916Z,11.79
2023-05-02T08:52:57.958Z,11.80
2023-05-02T08:55:08.414Z,11.80
2023-05-02T08:57:30.797Z,11.82
2023-05-02T08:59:40.105Z,11.83
2023-05-02T09:01:56.959Z,11.83
2023-05-02T09:04:17.494Z,11.84
2023-05-02T09:06:28.596Z,11.85
2023-05-02T09:08:38.586Z,11.84
2023-05-02T09:10:48.672Z,11.85
2023-05-02T09:12:58.572Z,11.85
2023-05-02T09:15:20.580Z,11.85
2023-05-02T09:17:40.395Z,11.86
2023-05-02T09:20:05.553Z,11.86
2023-05-02T09:22:27.165Z,11.88
2023-05-02T09:24:40.024Z,11.90
2023-05-02T09:27:01.364Z,11.91
2023-05-02T09:29:13.097Z,11.91
2023-05-02T09:33:35.313Z,11.91
2023-05-02T09:35:57.374Z,11.88
2023-05-02T09:38:22.597Z,11.85
2023-05-02T09:40:34.821Z,11.81
2023-05-02T09:42:43.995Z,11.79
2023-05-02T09:45:24.116Z,11.76
2023-05-02T09:47:33.872Z,11.73
2023-05-02T09:49:47.122Z,11.71
2023-05-02T09:52:18.081Z,11.69
2023-05-02T09:54:40.702Z,11.66
2023-05-02T09:56:59.822Z,11.63
2023-05-02T09:59:20.425Z,11.59
2023-05-02T10:04:35.480Z,11.50
2023-05-02T10:06:45.419Z,11.47
2023-05-02T10:08:54.656Z,11.42
2023-05-02T10:11:06.778Z,11.41
2023-05-02T10:13:18.334Z,11.40
2023-05-02T10:15:31.308Z,11.39
2023-05-02T10:17:47.125Z,11.39
2023-05-02T10:20:02.434Z,11.38
2023-05-02T10:22:12.794Z,11.38
2023-05-02T10:24:22.787Z,11.38
2023-05-02T10:26:32.602Z,11.38
2023-05-02T10:28:43.122Z,11.37
2023-05-02T10:30:53.603Z,11.37
2023-05-02T10:33:04.775Z,11.36
2023-05-02T10:35:14.441Z,11.38
2023-05-02T10:37:24.760Z,11.38
2023-05-02T10:39:35.654Z,11.38
2023-05-02T10:41:45.658Z,11.39
2023-05-02T10:43:54.708Z,11.39
2023-05-02T10:46:04.327Z,11.40
2023-05-02T10:48:21.342Z,11.40
2023-05-02T10:50:47.704Z,11.39
2023-05-02T10:52:56.882Z,11.39
2023-05-02T10:55:24.083Z,11.39
2023-05-02T10:57:33.432Z,11.39
2023-05-02T10:59:43.260Z,11.38
2023-05-02T11:01:52.508Z,11.39
2023-05-02T11:04:02.978Z,11.40
2023-05-02T11:06:12.614Z,11.41
2023-05-02T11:08:36.683Z,11.41
2023-05-02T11:10:46.667Z,11.42
2023-05-02T11:12:56.521Z,11.43
2023-05-02T11:15:07.082Z,11.43
2023-05-02T11:17:16.959Z,11.44
2023-05-02T11:19:26.013Z,11.43
2023-05-02T11:21:39.420Z,11.43
2023-05-02T11:23:48.646Z,11.42
2023-05-02T11:26:00.946Z,11.41
2023-05-02T11:28:30.950Z,11.39
2023-05-02T11:30:48.982Z,11.38
2023-05-02T11:33:17.979Z,11.38
2023-05-02T11:35:28.294Z,11.36
2023-05-02T11:37:37.787Z,11.36
2023-05-02T11:39:47.302Z,11.37
2023-05-02T11:41:56.505Z,11.38
2023-05-02T11:44:09.180Z,11.37
2023-05-02T11:46:20.572Z,11.38
2023-05-02T11:48:30.359Z,11.38
2023-05-02T11:50:49.640Z,11.39
2023-05-02T11:53:00.509Z,11.40
2023-05-02T11:55:13.631Z,11.41
2023-05-02T11:57:23.108Z,11.42
2023-05-02T11:59:32.489Z,11.41
2023-05-02T12:01:51.345Z,11.40
2023-05-02T12:04:08.004Z,11.40
2023-05-02T12:06:20.349Z,11.35
2023-05-02T12:08:31.708Z,11.32
2023-05-02T12:10:41.270Z,11.29
2023-05-02T12:12:50.198Z,11.26
2023-05-02T12:14:59.674Z,11.27
2023-05-02T12:17:10.817Z,11.26
2023-05-02T12:19:20.005Z,11.25
2023-05-02T12:21:30.418Z,11.23
2023-05-02T12:23:42.585Z,11.21
2023-05-02T12:25:51.939Z,11.19
2023-05-02T12:28:07.713Z,11.19
2023-05-02T12:30:30.796Z,11.18
2023-05-02T12:32:45.770Z,11.17
2023-05-02T12:34:54.959Z,11.18
2023-05-02T12:37:04.442Z,11.19
2023-05-02T12:39:14.694Z,11.19
2023-05-02T12:41:32.590Z,11.19
2023-05-02T12:43:52.743Z,11.20
2023-05-02T12:46:16.949Z,11.21
2023-05-02T12:48:27.506Z,11.21
2023-05-02T12:50:42.944Z,11.22
2023-05-02T12:52:57.799Z,11.21
2023-05-02T12:55:20.858Z,11.22
2023-05-02T12:57:30.891Z,11.22
2023-05-02T12:59:41.170Z,11.22
2023-05-02T13:01:50.538Z,11.22
2023-05-02T13:03:59.720Z,11.22
2023-05-02T13:06:09.623Z,11.22
2023-05-02T13:08:18.714Z,11.21
2023-05-02T13:10:28.524Z,11.20
2023-05-02T13:12:38.644Z,11.19
2023-05-02T13:14:47.602Z,11.20
2023-05-02T13:16:56.872Z,11.20
2023-05-02T13:19:06.202Z,11.19
2023-05-02T13:21:15.267Z,11.17
2023-05-02T13:23:27.103Z,11.17
2023-05-02T13:25:36.522Z,11.15
2023-05-02T13:27:46.468Z,11.16
2023-05-02T13:29:55.701Z,11.15
2023-05-02T13:32:05.129Z,11.15
2023-05-02T13:34:14.174Z,11.15
2023-05-02T13:36:24.904Z,11.14
2023-05-02T13:38:35.103Z,11.15
2023-05-02T13:40:44.486Z,11.14
2023-05-02T13:42:53.724Z,11.13
2023-05-02T13:45:05.454Z,11.12
2023-05-02T13:47:14.614Z,11.11
2023-05-02T13:49:23.667Z,11.12
2023-05-02T13:51:33.712Z,11.11
2023-05-02T13:53:42.958Z,11.13
2023-05-02T13:55:52.172Z,11.14
2023-05-02T13:58:01.982Z,11.15
2023-05-02T14:00:13.455Z,11.16
2023-05-02T14:02:24.160Z,11.16
2023-05-02T14:04:33.652Z,11.17
2023-05-02T14:06:42.775Z,11.16
2023-05-02T14:08:52.618Z,11.17
2023-05-02T14:11:02.453Z,11.19
2023-05-02T14:13:11.585Z,11.21
2023-05-02T14:15:21.274Z,11.23
2023-05-02T14:17:30.345Z,11.25
2023-05-02T14:19:39.452Z,11.26
2023-05-02T14:21:48.655Z,11.28
2023-05-02T14:23:57.878Z,11.30
2023-05-02T14:26:07.566Z,11.30
2023-05-02T14:28:16.688Z,11.28
2023-05-02T14:30:25.706Z,11.26
2023-05-02T14:32:35.668Z,11.24
2023-05-02T14:34:44.921Z,11.23
2023-05-02T14:36:54.022Z,11.23
2023-05-02T14:39:03.568Z,11.22
2023-05-02T14:41:13.562Z,11.22
2023-05-02T14:43:22.781Z,11.24
2023-05-02T14:45:32.124Z,11.23
2023-05-02T14:47:41.986Z,11.21
2023-05-02T14:49:51.231Z,11.20
2023-05-02T14:52:00.536Z,11.20
2023-05-02T14:54:09.951Z,11.18
2023-05-02T14:56:19.127Z,11.19
2023-05-02T14:58:28.337Z,11.25
2023-05-02T15:00:39.747Z,11.31
2023-05-02T15:02:49.057Z,11.39
2023-05-02T15:04:58.268Z,11.49
2023-05-02T15:07:07.733Z,11.59
2023-05-02T15:09:18.406Z,11.67
2023-05-02T15:11:28.022Z,11.73
2023-05-02T15:13:37.420Z,11.74
2023-05-02T15:15:48.152Z,11.74
2023-05-02T15:17:57.240Z,11.77
2023-05-02T15:20:06.926Z,11.83
2023-05-02T15:22:18.667Z,11.89
2023-05-02T15:24:28.217Z,11.96
2023-05-02T15:26:38.766Z,12.03
2023-05-02T15:28:47.845Z,12.10
2023-05-02T15:30:57.229Z,12.27
2023-05-02T15:33:07.495Z,12.51
2023-05-02T15:35:16.751Z,12.66
2023-05-02T15:37:26.029Z,12.67
2023-05-02T15:39:35.207Z,12.68
2023-05-02T15:41:48.007Z,12.76
2023-05-02T15:43:58.453Z,12.89
2023-05-02T15:46:07.833Z,13.02
2023-05-02T15:48:16.992Z,13.07
2023-05-02T15:50:26.008Z,13.11
2023-05-02T15:52:35.602Z,13.19
2023-05-02T15:54:44.562Z,13.30
2023-05-02T15:56:53.791Z,13.39
2023-05-02T15:59:03.088Z,13.42
2023-05-02T16:01:12.470Z,13.47
2023-05-02T16:03:21.759Z,13.54
2023-05-02T16:05:31.440Z,13.61
2023-05-02T16:07:40.651Z,13.67
2023-05-02T16:09:49.800Z,13.72
2023-05-02T16:11:59.672Z,13.79
2023-05-02T16:14:08.984Z,13.83
2023-05-02T16:16:18.183Z,13.90
2023-05-02T16:18:28.699Z,13.97
2023-05-02T16:20:37.840Z,14.00
2023-05-02T16:22:48.051Z,14.02
2023-05-02T16:24:57.573Z,14.05
2023-05-02T16:27:07.166Z,14.08
2023-05-02T16:29:16.259Z,14.12
2023-05-02T16:31:25.438Z,14.13
2023-05-02T16:33:35.432Z,14.22
2023-05-02T16:35:44.484Z,14.25
2023-05-02T16:37:53.591Z,14.29
2023-05-02T16:40:03.206Z,14.27
2023-05-02T16:42:13.521Z,14.26
2023-05-02T16:44:22.757Z,14.24
2023-05-02T16:46:33.051Z,14.17
2023-05-02T16:48:42.711Z,14.12
2023-05-02T16:50:52.275Z,14.10
2023-05-02T16:53:01.344Z,14.10
2023-05-02T16:55:11.079Z,14.09
2023-05-02T16:57:21.472Z,14.09
2023-05-02T16:59:30.777Z,14.10
2023-05-02T17:01:40.569Z,14.13
2023-05-02T17:03:49.816Z,14.15
2023-05-02T17:06:04.146Z,14.18
2023-05-02T17:08:14.202Z,14.19
2023-05-02T17:10:24.126Z,14.19
2023-05-02T17:12:33.975Z,14.20
2023-05-02T17:14:43.730Z,14.18
2023-05-02T17:16:53.331Z,14.18
2023-05-02T17:19:02.556Z,14.18
2023-05-02T17:21:12.069Z,14.22
2023-05-02T17:23:21.145Z,14.28
2023-05-02T17:25:30.280Z,14.38
2023-05-02T17:27:41.015Z,14.51
2023-05-02T17:29:50.550Z,14.70
2023-05-02T17:32:00.913Z,14.90
2023-05-02T17:34:10.644Z,15.12
2023-05-02T17:36:19.835Z,15.33
2023-05-02T17:38:28.917Z,15.56
2023-05-02T17:40:38.797Z,15.73
2023-05-02T17:42:48.785Z,15.90
2023-05-02T17:44:58.278Z,16.04
2023-05-02T17:47:08.937Z,16.18
2023-05-02T17:49:17.956Z,16.27
2023-05-02T17:51:27.138Z,16.33
2023-05-02T17:53:37.490Z,16.43
2023-05-02T17:55:46.697Z,16.51
2023-05-02T17:57:55.948Z,16.59
2023-05-02T18:00:07.994Z,16.63
2023-05-02T18:02:18.263Z,16.66
2023-05-02T18:04:27.680Z,16.66
2023-05-02T18:06:37.213Z,16.71
2023-05-02T18:08:46.905Z,16.75
2023-05-02T18:10:56.491Z,16.83
2023-05-02T18:13:06.415Z,16.93
2023-05-02T18:15:15.482Z,16.96
2023-05-02T18:17:24.832Z,17.01
2023-05-02T18:19:35.156Z,17.10
2023-05-02T18:21:45.406Z,17.26
2023-05-02T18:23:54.686Z,17.35
2023-05-02T18:26:03.737Z,17.37
2023-05-02T18:28:13.742Z,17.38
2023-05-02T18:30:22.995Z,17.38
2023-05-02T18:32:34.692Z,17.38
2023-05-02T18:34:44.005Z,17.37
2023-05-02T18:36:53.276Z,17.38
2023-05-02T18:39:02.540Z,17.38
2023-05-02T18:41:11.962Z,17.40
2023-05-02T18:43:22.304Z,17.41
2023-05-02T18:45:31.550Z,17.38
2023-05-02T18:47:40.724Z,17.35
2023-05-02T18:49:50.745Z,17.36
2023-05-02T18:51:59.913Z,17.38
2023-05-02T18:54:09.517Z,17.38
2023-05-02T18:56:18.626Z,17.37
2023-05-02T18:58:28.079Z,17.28
2023-05-02T19:00:37.906Z,17.19
2023-05-02T19:02:47.070Z,17.07
2023-05-02T19:04:56.374Z,16.99
2023-05-02T19:07:05.659Z,16.97
2023-05-02T19:09:16.037Z,16.97
2023-05-02T19:11:25.216Z,16.99
2023-05-02T19:13:35.302Z,17.06
2023-05-02T19:15:44.662Z,17.23
2023-05-02T19:17:54.969Z,17.45
2023-05-02T19:20:05.116Z,17.60
2023-05-02T19:22:15.308Z,17.80
2023-05-02T19:24:24.523Z,17.99
2023-05-02T19:26:33.829Z,18.16
2023-05-02T19:28:43.558Z,18.29
2023-05-02T19:30:52.544Z,18.46
2023-05-02T19:33:01.622Z,18.65
2023-05-02T19:35:11.970Z,18.91
2023-05-02T19:37:21.164Z,19.10
2023-05-02T19:39:31.073Z,19.21
2023-05-02T19:41:40.576Z,19.35
2023-05-02T19:43:50.104Z,19.47
2023-05-02T19:45:59.353Z,19.56
2023-05-02T19:48:09.619Z,19.65
2023-05-02T19:50:18.754Z,19.74
2023-05-02T19:52:28.329Z,19.86
2023-05-02T19:54:37.640Z,20.00
2023-05-02T19:56:49.073Z,20.16
2023-05-02T19:58:58.944Z,20.26
2023-05-02T20:01:10.807Z,20.27
2023-05-02T20:03:21.297Z,20.29
2023-05-02T20:05:30.963Z,20.22
2023-05-02T20:07:40.487Z,20.20
2023-05-02T20:09:49.624Z,20.23
2023-05-02T20:11:59.055Z,20.24
2023-05-02T20:14:11.332Z,20.28
2023-05-02T20:16:18.506Z,20.31
2023-05-02T20:18:28.298Z,20.34
2023-05-02T20:20:37.411Z,20.45
2023-05-02T20:22:46.681Z,20.54
2023-05-02T20:24:55.731Z,20.65
2023-05-02T20:27:04.926Z,20.80
2023-05-02T20:29:14.840Z,20.97
2023-05-02T20:31:23.949Z,21.11
2023-05-02T20:33:43.727Z,21.10
2023-05-02T20:35:58.520Z,21.08
2023-05-02T20:38:07.584Z,21.09
2023-05-02T20:40:17.717Z,21.09
2023-05-02T20:42:27.804Z,21.00
2023-05-02T20:44:38.276Z,20.98
2023-05-02T20:46:47.780Z,20.99
2023-05-02T20:48:57.276Z,20.93
2023-05-02T20:51:06.647Z,20.87
2023-05-02T20:53:16.124Z,20.89
2023-05-02T20:55:25.694Z,20.89
2023-05-02T20:57:34.826Z,20.81
2023-05-02T20:59:44.705Z,20.70
2023-05-02T21:01:54.144Z,20.60
2023-05-02T21:04:04.629Z,20.63
2023-05-02T21:06:14.159Z,20.70
2023-05-02T21:08:23.510Z,20.73
2023-05-02T21:10:33.209Z,20.72
2023-05-02T21:12:42.543Z,20.75
2023-05-02T21:14:52.172Z,20.80
2023-05-02T21:17:01.401Z,20.86
2023-05-02T21:19:10.875Z,20.88
2023-05-02T21:21:20.046Z,20.91
2023-05-02T21:23:29.213Z,20.90
2023-05-02T21:25:38.367Z,20.98
2023-05-02T21:27:47.742Z,21.09
2023-05-02T21:29:57.021Z,21.24
2023-05-02T21:32:06.447Z,21.33
2023-05-02T21:34:15.933Z,21.43
2023-05-02T21:36:25.118Z,21.54
2023-05-02T21:38:34.240Z,21.62
2023-05-02T21:40:45.115Z,21.63
2023-05-02T21:42:54.208Z,21.69
2023-05-02T21:45:04.239Z,21.77
2023-05-02T21:47:13.588Z,21.81
2023-05-02T21:49:22.645Z,21.82
2023-05-02T21:51:34.642Z,21.84
2023-05-02T21:53:44.111Z,21.86
2023-05-02T21:55:54.044Z,21.88
2023-05-02T21:58:03.206Z,21.88
2023-05-02T22:00:15.989Z,21.81
2023-05-02T22:02:25.287Z,21.77
2023-05-02T22:04:34.446Z,21.76
2023-05-02T22:06:44.111Z,21.73
2023-05-02T22:08:53.507Z,21.75
2023-05-02T22:11:06.237Z,21.78
2023-05-02T22:13:16.999Z,21.77
2023-05-02T22:15:26.992Z,21.76
2023-05-02T22:17:36.354Z,21.78
2023-05-02T22:19:46.233Z,21.80
2023-05-02T22:21:56.894Z,21.83
2023-05-02T22:24:06.927Z,21.87
2023-05-02T22:26:16.405Z,21.93
2023-05-02T22:28:25.515Z,21.96
2023-05-02T22:30:34.799Z,21.99
2023-05-02T22:32:44.491Z,22.01
2023-05-02T22:34:53.691Z,22.02
2023-05-02T22:37:03.066Z,21.98
2023-05-02T22:39:15.911Z,21.93
2023-05-02T22:41:25.118Z,21.92
2023-05-02T22:43:34.626Z,21.95
2023-05-02T22:45:44.292Z,21.98
2023-05-02T22:47:53.546Z,22.01
2023-05-02T22:50:05.618Z,22.02
2023-05-02T22:52:15.319Z,22.00
2023-05-02T22:54:24.520Z,22.01
2023-05-02T22:56:33.647Z,22.03
2023-05-02T22:58:43.054Z,22.04
2023-05-02T23:00:52.624Z,22.04
2023-05-02T23:03:01.941Z,22.05
2023-05-02T23:05:12.195Z,22.05
2023-05-02T23:07:21.186Z,22.07
2023-05-02T23:09:30.234Z,22.08
2023-05-02T23:11:39.466Z,22.09
2023-05-02T23:13:48.732Z,22.08
2023-05-02T23:15:58.850Z,22.09
2023-05-02T23:18:08.456Z,22.06
2023-05-02T23:20:19.915Z,22.06
2023-05-02T23:22:28.960Z,22.05
2023-05-02T23:24:38.238Z,22.01
2023-05-02T23:26:47.513Z,21.97
2023-05-02T23:28:56.788Z,21.93
2023-05-02T23:31:07.173Z,21.90
2023-05-02T23:33:16.896Z,21.82
2023-05-02T23:35:26.065Z,21.72
2023-05-02T23:37:35.569Z,21.64
2023-05-02T23:39:44.912Z,21.60
2023-05-02T23:41:54.123Z,21.57
2023-05-02T23:44:03.705Z,21.53
2023-05-02T23:46:13.716Z,21.47
2023-05-02T23:48:23.761Z,21.45
2023-05-02T23:50:32.910Z,21.43
2023-05-02T23:52:42.044Z,21.41
2023-05-02T23:54:52.620Z,21.38
2023-05-02T23:57:01.739Z,21.37
2023-05-02T23:59:10.989Z,21.32
